sensor_id;sensor_type;location;lat;lon;timestamp;pressure;altitude;pressure_sealevel;temperature;humidity
56330;BME280;42236;48.058;10.632;2023-05-15T00:01:16;94280.63;;;10.39;98.04
56330;BME280;42236;48.058;10.632;2023-05-15T00:04:02;94281.75;;;10.38;98.11
56330;BME280;42236;48.058;10.632;2023-05-15T00:06:48;94278.63;;;10.36;98.14
56330;BME280;42236;48.058;10.632;2023-05-15T00:09:34;94278.63;;;10.36;98.07
56330;BME280;42236;48.058;10.632;2023-05-15T00:12:20;94271.22;;;10.33;98.48
56330;BME280;42236;48.058;10.632;2023-05-15T00:15:06;94271.94;;;10.30;98.35
56330;BME280;42236;48.058;10.632;2023-05-15T00:17:52;94275.75;;;10.29;98.47
56330;BME280;42236;48.058;10.632;2023-05-15T00:20:38;94269.47;;;10.24;98.81
56330;BME280;42236;48.058;10.632;2023-05-15T00:23:24;94265.91;;;10.20;98.97
56330;BME280;42236;48.058;10.632;2023-05-15T00:26:09;94267.44;;;10.21;98.99
56330;BME280;42236;48.058;10.632;2023-05-15T00:28:55;94265.19;;;10.23;99.07
56330;BME280;42236;48.058;10.632;2023-05-15T00:31:41;94265.19;;;10.23;99.02
56330;BME280;42236;48.058;10.632;2023-05-15T00:34:27;94259.81;;;10.23;99.06
56330;BME280;42236;48.058;10.632;2023-05-15T00:37:12;94262.94;;;10.25;98.74
56330;BME280;42236;48.058;10.632;2023-05-15T00:39:58;94262.94;;;10.25;98.62
56330;BME280;42236;48.058;10.632;2023-05-15T00:42:45;94256.78;;;10.25;98.46
56330;BME280;42236;48.058;10.632;2023-05-15T00:45:31;94253.28;;;10.24;98.62
56330;BME280;42236;48.058;10.632;2023-05-15T00:48:18;94254.84;;;10.25;98.35
56330;BME280;42236;48.058;10.632;2023-05-15T00:51:04;94263.72;;;10.26;98.46
56330;BME280;42236;48.058;10.632;2023-05-15T00:53:50;94260.56;;;10.24;98.78
56330;BME280;42236;48.058;10.632;2023-05-15T00:56:37;94261.28;;;10.21;98.94
56330;BME280;42236;48.058;10.632;2023-05-15T00:59:25;94255.81;;;10.17;98.88
56330;BME280;42236;48.058;10.632;2023-05-15T01:02:13;94251.09;;;10.14;99.06
56330;BME280;42236;48.058;10.632;2023-05-15T01:05:00;94260.31;;;10.13;99.15
56330;BME280;42236;48.058;10.632;2023-05-15T01:08:00;94260.31;;;10.13;99.26
56330;BME280;42236;48.058;10.632;2023-05-15T01:10:50;94256.47;;;10.14;99.10
56330;BME280;42236;48.058;10.632;2023-05-15T01:13:36;94252.69;;;10.15;99.05
56330;BME280;42236;48.058;10.632;2023-05-15T01:16:22;94249.19;;;10.15;98.71
56330;BME280;42236;48.058;10.632;2023-05-15T01:19:07;94253.78;;;10.14;98.71
56330;BME280;42236;48.058;10.632;2023-05-15T01:27:58;94246.66;;;10.06;99.46
56330;BME280;42236;48.058;10.632;2023-05-15T01:30:47;94236.16;;;10.01;99.76
56330;BME280;42236;48.058;10.632;2023-05-15T01:33:38;94235.25;;;9.97;99.82
56330;BME280;42236;48.058;10.632;2023-05-15T01:36:50;94239.44;;;9.94;100.00
56330;BME280;42236;48.058;10.632;2023-05-15T01:39:39;94244.75;;;9.91;99.85
56330;BME280;42236;48.058;10.632;2023-05-15T01:42:30;94239.34;;;9.91;100.00
56330;BME280;42236;48.058;10.632;2023-05-15T01:45:18;94235.84;;;9.90;99.75
56330;BME280;42236;48.058;10.632;2023-05-15T01:48:06;94242.03;;;9.91;99.72
56330;BME280;42236;48.058;10.632;2023-05-15T01:50:54;94238.22;;;9.92;99.53
56330;BME280;42236;48.058;10.632;2023-05-15T01:53:41;94244.31;;;9.89;99.68
56330;BME280;42236;48.058;10.632;2023-05-15T01:56:28;94235.78;;;9.87;99.38
56330;BME280;42236;48.058;10.632;2023-05-15T01:59:16;94244.19;;;9.85;99.37
56330;BME280;42236;48.058;10.632;2023-05-15T02:02:04;94243.09;;;9.86;99.50
56330;BME280;42236;48.058;10.632;2023-05-15T02:04:50;94240.72;;;9.85;99.56
56330;BME280;42236;48.058;10.632;2023-05-15T02:07:37;94242.97;;;9.82;99.40
56330;BME280;42236;48.058;10.632;2023-05-15T02:10:24;94238.72;;;9.81;99.43
56330;BME280;42236;48.058;10.632;2023-05-15T02:13:11;94245.66;;;9.82;99.34
56330;BME280;42236;48.058;10.632;2023-05-15T02:15:58;94247.91;;;9.80;99.52
56330;BME280;42236;48.058;10.632;2023-05-15T02:18:43;94245.47;;;9.75;99.49
56330;BME280;42236;48.058;10.632;2023-05-15T02:21:29;94240.69;;;9.69;100.00
56330;BME280;42236;48.058;10.632;2023-05-15T02:24:15;94234.50;;;9.68;99.76
56330;BME280;42236;48.058;10.632;2023-05-15T02:27:19;94233.41;;;9.69;100.00
56330;BME280;42236;48.058;10.632;2023-05-15T02:30:22;94229.69;;;9.74;99.92
56330;BME280;42236;48.058;10.632;2023-05-15T02:33:41;94229.44;;;9.79;99.64
56330;BME280;42236;48.058;10.632;2023-05-15T02:36:32;94234.00;;;9.78;99.34
56330;BME280;42236;48.058;10.632;2023-05-15T02:39:21;94229.31;;;9.75;99.20
56330;BME280;42236;48.058;10.632;2023-05-15T02:42:10;94218.47;;;9.72;99.13
56330;BME280;42236;48.058;10.632;2023-05-15T02:44:57;94222.19;;;9.67;99.40
56330;BME280;42236;48.058;10.632;2023-05-15T02:47:43;94225.13;;;9.62;99.56
56330;BME280;42236;48.058;10.632;2023-05-15T02:50:29;94222.44;;;9.62;99.90
56330;BME280;42236;48.058;10.632;2023-05-15T02:53:15;94225.13;;;9.62;100.00
56330;BME280;42236;48.058;10.632;2023-05-15T02:56:00;94219.75;;;9.62;100.00
56330;BME280;42236;48.058;10.632;2023-05-15T02:58:47;94223.28;;;9.66;100.00
56330;BME280;42236;48.058;10.632;2023-05-15T03:01:34;94219.81;;;9.66;100.00
56330;BME280;42236;48.058;10.632;2023-05-15T03:04:19;94220.59;;;9.66;100.00
56330;BME280;42236;48.058;10.632;2023-05-15T03:07:05;94225.56;;;9.64;100.00
56330;BME280;42236;48.058;10.632;2023-05-15T03:09:51;94222.25;;;9.55;100.00
56330;BME280;42236;48.058;10.632;2023-05-15T03:12:37;94223.59;;;9.49;100.00
56330;BME280;42236;48.058;10.632;2023-05-15T03:15:23;94226.22;;;9.45;100.00
56330;BME280;42236;48.058;10.632;2023-05-15T03:18:09;94221.50;;;9.42;100.00
56330;BME280;42236;48.058;10.632;2023-05-15T03:20:54;94226.53;;;9.44;100.00
56330;BME280;42236;48.058;10.632;2023-05-15T03:23:40;94231.47;;;9.42;100.00
56330;BME280;42236;48.058;10.632;2023-05-15T03:26:25;94229.25;;;9.44;100.00
56330;BME280;42236;48.058;10.632;2023-05-15T03:29:12;94223.16;;;9.47;100.00
56330;BME280;42236;48.058;10.632;2023-05-15T03:31:57;94225.19;;;9.50;100.00
56330;BME280;42236;48.058;10.632;2023-05-15T03:34:43;94225.97;;;9.50;100.00
56330;BME280;42236;48.058;10.632;2023-05-15T03:37:29;94208.09;;;9.58;100.00
56330;BME280;42236;48.058;10.632;2023-05-15T03:40:15;94213.81;;;9.56;100.00
56330;BME280;42236;48.058;10.632;2023-05-15T03:43:01;94222.31;;;9.58;100.00
56330;BME280;42236;48.058;10.632;2023-05-15T03:45:46;94222.78;;;9.60;100.00
56330;BME280;42236;48.058;10.632;2023-05-15T03:48:32;94228.94;;;9.61;100.00
56330;BME280;42236;48.058;10.632;2023-05-15T03:51:18;94222.69;;;9.57;100.00
56330;BME280;42236;48.058;10.632;2023-05-15T03:54:04;94227.97;;;9.53;100.00
56330;BME280;42236;48.058;10.632;2023-05-15T03:56:50;94227.53;;;9.51;100.00
56330;BME280;42236;48.058;10.632;2023-05-15T03:59:35;94233.69;;;9.52;100.00
56330;BME280;42236;48.058;10.632;2023-05-15T04:02:21;94226.75;;;9.51;100.00
56330;BME280;42236;48.058;10.632;2023-05-15T04:05:07;94223.34;;;9.54;100.00
56330;BME280;42236;48.058;10.632;2023-05-15T04:07:53;94229.44;;;9.51;100.00
56330;BME280;42236;48.058;10.632;2023-05-15T04:10:39;94226.22;;;9.45;100.00
56330;BME280;42236;48.058;10.632;2023-05-15T04:13:25;94236.97;;;9.45;100.00
56330;BME280;42236;48.058;10.632;2023-05-15T04:16:10;94235.50;;;9.48;100.00
56330;BME280;42236;48.058;10.632;2023-05-15T04:18:56;94232.38;;;9.46;100.00
56330;BME280;42236;48.058;10.632;2023-05-15T04:21:41;94234.81;;;9.51;100.00
56330;BME280;42236;48.058;10.632;2023-05-15T04:24:27;94232.56;;;9.53;100.00
56330;BME280;42236;48.058;10.632;2023-05-15T04:27:13;94235.00;;;9.58;100.00
56330;BME280;42236;48.058;10.632;2023-05-15T04:29:59;94235.09;;;9.61;100.00
56330;BME280;42236;48.058;10.632;2023-05-15T04:32:45;94236.75;;;9.66;100.00
56330;BME280;42236;48.058;10.632;2023-05-15T04:35:31;94231.94;;;9.72;100.00
56330;BME280;42236;48.058;10.632;2023-05-15T04:38:17;94235.47;;;9.76;100.00
56330;BME280;42236;48.058;10.632;2023-05-15T04:41:02;94237.41;;;9.75;100.00
56330;BME280;42236;48.058;10.632;2023-05-15T04:43:48;94231.69;;;9.77;100.00
56330;BME280;42236;48.058;10.632;2023-05-15T04:46:34;94230.97;;;9.80;100.00
56330;BME280;42236;48.058;10.632;2023-05-15T04:49:21;94239.59;;;9.86;100.00
56330;BME280;42236;48.058;10.632;2023-05-15T04:52:07;94240.91;;;9.92;100.00
56330;BME280;42236;48.058;10.632;2023-05-15T04:54:53;94238.84;;;10.01;100.00
56330;BME280;42236;48.058;10.632;2023-05-15T04:57:40;94239.34;;;10.07;100.00
56330;BME280;42236;48.058;10.632;2023-05-15T05:00:27;94239.88;;;10.12;100.00
56330;BME280;42236;48.058;10.632;2023-05-15T05:03:13;94244.22;;;10.17;100.00
56330;BME280;42236;48.058;10.632;2023-05-15T05:05:59;94244.34;;;10.20;100.00
56330;BME280;42236;48.058;10.632;2023-05-15T05:08:44;94253.63;;;10.23;100.00
56330;BME280;42236;48.058;10.632;2023-05-15T05:11:30;94246.09;;;10.29;99.75
56330;BME280;42236;48.058;10.632;2023-05-15T05:14:16;94254.00;;;10.37;99.64
56330;BME280;42236;48.058;10.632;2023-05-15T05:17:02;94254.19;;;10.44;99.54
56330;BME280;42236;48.058;10.632;2023-05-15T05:19:48;94258.53;;;10.49;99.26
56330;BME280;42236;48.058;10.632;2023-05-15T05:22:34;94252.63;;;10.59;99.11
56330;BME280;42236;48.058;10.632;2023-05-15T05:25:19;94250.94;;;10.71;98.65
56330;BME280;42236;48.058;10.632;2023-05-15T05:28:08;94253.00;;;10.77;98.48
56330;BME280;42236;48.058;10.632;2023-05-15T05:30:54;94257.34;;;10.82;98.32
56330;BME280;42236;48.058;10.632;2023-05-15T05:33:40;94257.53;;;10.89;97.98
56330;BME280;42236;48.058;10.632;2023-05-15T05:36:25;94263.84;;;10.97;97.61
56330;BME280;42236;48.058;10.632;2023-05-15T05:39:11;94265.88;;;11.00;97.59
56330;BME280;42236;48.058;10.632;2023-05-15T05:41:57;94267.09;;;11.02;97.11
56330;BME280;42236;48.058;10.632;2023-05-15T05:44:42;94265.06;;;10.99;97.49
56330;BME280;42236;48.058;10.632;2023-05-15T05:47:28;94264.53;;;11.09;97.13
56330;BME280;42236;48.058;10.632;2023-05-15T05:50:14;94267.41;;;11.17;97.06
56330;BME280;42236;48.058;10.632;2023-05-15T05:53:00;94264.56;;;11.29;97.05
56330;BME280;42236;48.058;10.632;2023-05-15T05:55:45;94274.03;;;11.39;96.48
56330;BME280;42236;48.058;10.632;2023-05-15T05:58:31;94266.75;;;11.43;95.73
56330;BME280;42236;48.058;10.632;2023-05-15T06:01:17;94266.13;;;11.49;96.24
56330;BME280;42236;48.058;10.632;2023-05-15T06:04:03;94264.44;;;11.61;96.10
56330;BME280;42236;48.058;10.632;2023-05-15T06:06:49;94264.50;;;11.64;95.10
56330;BME280;42236;48.058;10.632;2023-05-15T06:09:34;94271.81;;;11.64;95.70
56330;BME280;42236;48.058;10.632;2023-05-15T06:12:20;94268.97;;;11.57;95.23
56330;BME280;42236;48.058;10.632;2023-05-15T06:15:06;94276.44;;;11.44;95.33
56330;BME280;42236;48.058;10.632;2023-05-15T06:17:52;94269.56;;;11.46;95.74
56330;BME280;42236;48.058;10.632;2023-05-15T06:20:38;94266.72;;;11.59;95.40
56330;BME280;42236;48.058;10.632;2023-05-15T06:23:23;94282.16;;;11.58;94.81
56330;BME280;42236;48.058;10.632;2023-05-15T06:26:09;94276.66;;;11.54;94.76
56330;BME280;42236;48.058;10.632;2023-05-15T06:28:55;94277.72;;;11.50;94.50
56330;BME280;42236;48.058;10.632;2023-05-15T06:31:40;94274.38;;;11.57;95.06
56330;BME280;42236;48.058;10.632;2023-05-15T06:34:26;94277.47;;;11.55;94.80
56330;BME280;42236;48.058;10.632;2023-05-15T06:37:12;94278.94;;;11.52;94.55
56330;BME280;42236;48.058;10.632;2023-05-15T06:39:58;94282.34;;;11.49;95.07
56330;BME280;42236;48.058;10.632;2023-05-15T06:42:43;94293.88;;;11.66;95.11
56330;BME280;42236;48.058;10.632;2023-05-15T06:45:29;94289.63;;;11.84;94.70
56330;BME280;42236;48.058;10.632;2023-05-15T06:48:15;94289.53;;;12.00;94.40
56330;BME280;42236;48.058;10.632;2023-05-15T06:51:01;94297.66;;;12.00;93.48
56330;BME280;42236;48.058;10.632;2023-05-15T06:53:47;94289.81;;;12.14;93.07
56330;BME280;42236;48.058;10.632;2023-05-15T06:56:33;94292.59;;;12.18;92.51
56330;BME280;42236;48.058;10.632;2023-05-15T06:59:18;94291.16;;;12.24;92.46
56330;BME280;42236;48.058;10.632;2023-05-15T07:02:04;94300.53;;;12.30;91.76
56330;BME280;42236;48.058;10.632;2023-05-15T07:04:50;94302.38;;;12.26;91.64
56330;BME280;42236;48.058;10.632;2023-05-15T07:07:36;94305.56;;;12.32;91.70
56330;BME280;42236;48.058;10.632;2023-05-15T07:10:21;94299.16;;;12.40;90.79
56330;BME280;42236;48.058;10.632;2023-05-15T07:13:07;94289.72;;;12.53;90.21
56330;BME280;42236;48.058;10.632;2023-05-15T07:15:53;94301.44;;;12.61;89.28
56330;BME280;42236;48.058;10.632;2023-05-15T07:18:38;94295.94;;;12.80;89.05
56330;BME280;42236;48.058;10.632;2023-05-15T07:21:24;94302.22;;;12.85;88.51
56330;BME280;42236;48.058;10.632;2023-05-15T07:24:10;94298.38;;;12.86;87.11
56330;BME280;42236;48.058;10.632;2023-05-15T07:26:56;94298.25;;;12.78;87.05
56330;BME280;42236;48.058;10.632;2023-05-15T07:29:41;94302.75;;;12.71;87.49
56330;BME280;42236;48.058;10.632;2023-05-15T07:32:27;94298.59;;;12.54;87.76
56330;BME280;42236;48.058;10.632;2023-05-15T07:35:13;94302.22;;;12.38;87.99
56330;BME280;42236;48.058;10.632;2023-05-15T07:37:59;94306.66;;;12.27;87.77
56330;BME280;42236;48.058;10.632;2023-05-15T07:40:44;94306.81;;;12.15;88.63
56330;BME280;42236;48.058;10.632;2023-05-15T07:43:30;94302.25;;;12.19;88.83
56330;BME280;42236;48.058;10.632;2023-05-15T07:46:16;94305.31;;;12.17;88.35
56330;BME280;42236;48.058;10.632;2023-05-15T07:49:01;94311.81;;;12.13;88.44
56330;BME280;42236;48.058;10.632;2023-05-15T07:51:47;94303.28;;;12.11;88.26
56330;BME280;42236;48.058;10.632;2023-05-15T07:54:33;94312.22;;;12.15;87.87
56330;BME280;42236;48.058;10.632;2023-05-15T07:57:18;94302.34;;;12.23;88.04
56330;BME280;42236;48.058;10.632;2023-05-15T08:00:06;94303.50;;;12.45;87.81
56330;BME280;42236;48.058;10.632;2023-05-15T08:02:55;94301.97;;;12.70;87.47
56330;BME280;42236;48.058;10.632;2023-05-15T08:05:41;94303.78;;;12.86;86.43
56330;BME280;42236;48.058;10.632;2023-05-15T08:08:26;94305.34;;;12.87;86.07
56330;BME280;42236;48.058;10.632;2023-05-15T08:11:12;94304.81;;;13.04;86.56
56330;BME280;42236;48.058;10.632;2023-05-15T08:13:58;94297.56;;;13.35;85.56
56330;BME280;42236;48.058;10.632;2023-05-15T08:16:44;94300.47;;;13.49;84.20
56330;BME280;42236;48.058;10.632;2023-05-15T08:19:30;94297.13;;;13.59;84.43
56330;BME280;42236;48.058;10.632;2023-05-15T08:22:15;94307.44;;;13.80;83.29
56330;BME280;42236;48.058;10.632;2023-05-15T08:25:01;94299.66;;;13.75;83.59
56330;BME280;42236;48.058;10.632;2023-05-15T08:27:51;94305.50;;;13.81;83.51
56330;BME280;42236;48.058;10.632;2023-05-15T08:30:36;94303.72;;;13.92;83.70
56330;BME280;42236;48.058;10.632;2023-05-15T08:33:22;94304.34;;;14.16;83.19
56330;BME280;42236;48.058;10.632;2023-05-15T08:36:08;94305.31;;;14.30;82.19
56330;BME280;42236;48.058;10.632;2023-05-15T08:38:54;94295.50;;;14.56;81.79
56330;BME280;42236;48.058;10.632;2023-05-15T08:42:04;94301.81;;;14.71;78.46
56330;BME280;42236;48.058;10.632;2023-05-15T08:45:12;94293.69;;;14.71;80.06
56330;BME280;42236;48.058;10.632;2023-05-15T08:48:08;94297.94;;;14.31;79.63
56330;BME280;42236;48.058;10.632;2023-05-15T08:50:56;94290.16;;;14.26;81.01
56330;BME280;42236;48.058;10.632;2023-05-15T08:53:46;94297.56;;;14.33;80.69
56330;BME280;42236;48.058;10.632;2023-05-15T08:56:35;94303.81;;;14.37;80.41
56330;BME280;42236;48.058;10.632;2023-05-15T08:59:21;94294.75;;;14.22;79.38
56330;BME280;42236;48.058;10.632;2023-05-15T09:02:07;94296.56;;;14.51;79.82
56330;BME280;42236;48.058;10.632;2023-05-15T09:04:56;94296.09;;;14.80;79.10
56330;BME280;42236;48.058;10.632;2023-05-15T09:08:10;94294.06;;;15.18;77.34
56330;BME280;42236;48.058;10.632;2023-05-15T09:10:57;94286.28;;;15.16;77.46
56330;BME280;42236;48.058;10.632;2023-05-15T09:13:43;94283.22;;;15.25;77.78
56330;BME280;42236;48.058;10.632;2023-05-15T09:19:38;94285.44;;;15.71;76.03
56330;BME280;42236;48.058;10.632;2023-05-15T09:22:32;94287.22;;;15.45;76.13
56330;BME280;42236;48.058;10.632;2023-05-15T09:29:01;94290.09;;;15.08;73.36
56330;BME280;42236;48.058;10.632;2023-05-15T09:31:47;94297.31;;;15.48;75.67
56330;BME280;42236;48.058;10.632;2023-05-15T09:34:35;94287.44;;;15.85;74.99
56330;BME280;42236;48.058;10.632;2023-05-15T09:37:30;94274.72;;;16.10;72.99
56330;BME280;42236;48.058;10.632;2023-05-15T09:40:29;94274.38;;;16.33;70.29
56330;BME280;42236;48.058;10.632;2023-05-15T09:43:16;94272.81;;;16.39;73.00
56330;BME280;42236;48.058;10.632;2023-05-15T09:46:02;94275.19;;;16.59;71.65
56330;BME280;42236;48.058;10.632;2023-05-15T09:48:48;94260.41;;;16.63;72.33
56330;BME280;42236;48.058;10.632;2023-05-15T09:51:34;94268.59;;;16.71;71.83
56330;BME280;42236;48.058;10.632;2023-05-15T09:54:22;94264.66;;;16.57;71.90
56330;BME280;42236;48.058;10.632;2023-05-15T09:57:10;94263.81;;;16.10;72.17
56330;BME280;42236;48.058;10.632;2023-05-15T09:59:59;94268.75;;;15.79;71.64
56330;BME280;42236;48.058;10.632;2023-05-15T10:02:46;94261.91;;;16.14;72.64
56330;BME280;42236;48.058;10.632;2023-05-15T10:05:32;94258.03;;;16.23;72.07
56330;BME280;42236;48.058;10.632;2023-05-15T10:08:25;94254.16;;;16.45;70.72
56330;BME280;42236;48.058;10.632;2023-05-15T10:11:12;94253.41;;;16.55;71.01
56330;BME280;42236;48.058;10.632;2023-05-15T10:13:58;94247.94;;;16.41;71.88
56330;BME280;42236;48.058;10.632;2023-05-15T10:16:44;94248.34;;;16.47;71.45
56330;BME280;42236;48.058;10.632;2023-05-15T10:19:31;94256.13;;;16.48;71.12
56330;BME280;42236;48.058;10.632;2023-05-15T10:22:49;94258.41;;;16.21;67.96
56330;BME280;42236;48.058;10.632;2023-05-15T10:25:53;94254.13;;;16.09;68.52
56330;BME280;42236;48.058;10.632;2023-05-15T10:28:41;94251.72;;;15.97;71.38
56330;BME280;42236;48.058;10.632;2023-05-15T10:31:40;94244.38;;;16.08;68.76
56330;BME280;42236;48.058;10.632;2023-05-15T10:34:27;94244.75;;;15.92;69.87
56330;BME280;42236;48.058;10.632;2023-05-15T10:37:13;94250.91;;;15.78;70.83
56330;BME280;42236;48.058;10.632;2023-05-15T10:40:00;94247.69;;;15.62;71.89
56330;BME280;42236;48.058;10.632;2023-05-15T10:42:47;94258.78;;;14.73;75.48
56330;BME280;42236;48.058;10.632;2023-05-15T10:45:34;94245.53;;;13.86;78.40
56330;BME280;42236;48.058;10.632;2023-05-15T10:48:27;94253.22;;;13.20;82.69
56330;BME280;42236;48.058;10.632;2023-05-15T10:51:29;94253.16;;;12.63;86.69
56330;BME280;42236;48.058;10.632;2023-05-15T10:54:16;94251.56;;;12.35;88.16
56330;BME280;42236;48.058;10.632;2023-05-15T10:57:01;94247.75;;;12.17;86.98
56330;BME280;42236;48.058;10.632;2023-05-15T10:59:47;94245.09;;;11.98;86.31
56330;BME280;42236;48.058;10.632;2023-05-15T11:02:37;94246.28;;;12.00;87.62
56330;BME280;42236;48.058;10.632;2023-05-15T11:05:24;94237.78;;;12.21;85.93
56330;BME280;42236;48.058;10.632;2023-05-15T11:14:38;94216.81;;;13.48;85.88
56330;BME280;42236;48.058;10.632;2023-05-15T11:17:24;94213.94;;;13.67;84.61
56330;BME280;42236;48.058;10.632;2023-05-15T11:20:10;94212.97;;;13.82;84.90
56330;BME280;42236;48.058;10.632;2023-05-15T11:22:57;94220.94;;;14.05;87.46
56330;BME280;42236;48.058;10.632;2023-05-15T11:25:51;94228.66;;;14.03;85.90
56330;BME280;42236;48.058;10.632;2023-05-15T11:28:43;94226.63;;;14.30;85.76
56330;BME280;42236;48.058;10.632;2023-05-15T11:31:31;94232.13;;;14.41;83.93
56330;BME280;42236;48.058;10.632;2023-05-15T11:34:33;94234.03;;;14.37;84.23
56330;BME280;42236;48.058;10.632;2023-05-15T11:37:19;94233.19;;;14.29;83.78
56330;BME280;42236;48.058;10.632;2023-05-15T11:40:05;94236.28;;;14.28;84.54
56330;BME280;42236;48.058;10.632;2023-05-15T11:45:56;94240.38;;;14.11;83.76
56330;BME280;42236;48.058;10.632;2023-05-15T11:48:44;94235.31;;;14.09;83.16
56330;BME280;42236;48.058;10.632;2023-05-15T11:51:34;94236.16;;;14.14;83.13
56330;BME280;42236;48.058;10.632;2023-05-15T11:54:22;94235.75;;;14.15;82.29
56330;BME280;42236;48.058;10.632;2023-05-15T11:57:08;94237.75;;;14.22;82.55
56330;BME280;42236;48.058;10.632;2023-05-15T11:59:54;94233.94;;;14.26;82.71
56330;BME280;42236;48.058;10.632;2023-05-15T12:02:40;94227.75;;;14.29;81.99
56330;BME280;42236;48.058;10.632;2023-05-15T12:05:26;94222.81;;;14.39;82.58
56330;BME280;42236;48.058;10.632;2023-05-15T12:08:12;94219.44;;;14.52;81.86
56330;BME280;42236;48.058;10.632;2023-05-15T12:11:02;94219.97;;;14.69;82.58
56330;BME280;42236;48.058;10.632;2023-05-15T12:13:50;94214.31;;;14.92;82.81
56330;BME280;42236;48.058;10.632;2023-05-15T12:16:37;94216.44;;;15.20;82.76
56330;BME280;42236;48.058;10.632;2023-05-15T12:19:27;94216.97;;;15.54;83.60
56330;BME280;42236;48.058;10.632;2023-05-15T12:22:13;94199.22;;;15.82;82.90
56330;BME280;42236;48.058;10.632;2023-05-15T12:25:05;94185.66;;;16.04;82.49
56330;BME280;42236;48.058;10.632;2023-05-15T12:27:52;94181.00;;;16.11;80.76
56330;BME280;42236;48.058;10.632;2023-05-15T12:30:38;94182.59;;;16.12;79.69
56330;BME280;42236;48.058;10.632;2023-05-15T12:33:24;94183.38;;;16.16;79.48
56330;BME280;42236;48.058;10.632;2023-05-15T12:39:59;94183.38;;;16.59;79.48
56330;BME280;42236;48.058;10.632;2023-05-15T12:42:51;94180.25;;;16.64;77.51
56330;BME280;42236;48.058;10.632;2023-05-15T12:49:21;94181.06;;;16.43;76.31
56330;BME280;42236;48.058;10.632;2023-05-15T12:52:16;94176.78;;;16.39;76.48
56330;BME280;42236;48.058;10.632;2023-05-15T12:55:02;94183.38;;;16.52;77.12
56330;BME280;42236;48.058;10.632;2023-05-15T12:58:17;94184.94;;;16.68;74.39
56330;BME280;42236;48.058;10.632;2023-05-15T13:01:03;94177.91;;;16.95;76.21
56330;BME280;42236;48.058;10.632;2023-05-15T13:07:16;94171.63;;;17.13;73.68
56330;BME280;42236;48.058;10.632;2023-05-15T13:10:06;94171.22;;;17.28;73.51
56330;BME280;42236;48.058;10.632;2023-05-15T13:12:56;94179.38;;;17.25;72.18
56330;BME280;42236;48.058;10.632;2023-05-15T13:15:52;94177.41;;;17.36;71.54
56330;BME280;42236;48.058;10.632;2023-05-15T13:18:48;94179.03;;;17.12;71.63
56330;BME280;42236;48.058;10.632;2023-05-15T13:21:46;94178.69;;;16.99;71.65
56330;BME280;42236;48.058;10.632;2023-05-15T13:24:32;94181.00;;;17.01;70.96
56330;BME280;42236;48.058;10.632;2023-05-15T13:27:18;94187.25;;;17.09;71.00
56330;BME280;42236;48.058;10.632;2023-05-15T13:30:22;94203.59;;;16.91;66.25
56330;BME280;42236;48.058;10.632;2023-05-15T13:33:09;94218.00;;;16.59;68.11
56330;BME280;42236;48.058;10.632;2023-05-15T13:39:42;94235.41;;;14.20;64.86
56330;BME280;42236;48.058;10.632;2023-05-15T13:42:28;94239.00;;;13.57;64.79
56330;BME280;42236;48.058;10.632;2023-05-15T13:45:14;94238.56;;;13.24;65.95
56330;BME280;42236;48.058;10.632;2023-05-15T13:48:00;94234.00;;;13.02;66.96
56330;BME280;42236;48.058;10.632;2023-05-15T13:50:46;94221.16;;;12.95;68.21
56330;BME280;42236;48.058;10.632;2023-05-15T13:53:32;94227.19;;;12.85;68.52
56330;BME280;42236;48.058;10.632;2023-05-15T13:56:18;94246.84;;;12.55;68.71
56330;BME280;42236;48.058;10.632;2023-05-15T14:02:02;94261.31;;;11.98;75.18
56330;BME280;42236;48.058;10.632;2023-05-15T14:04:48;94276.09;;;11.45;77.49
56330;BME280;42236;48.058;10.632;2023-05-15T14:07:37;94285.59;;;11.04;80.98
56330;BME280;42236;48.058;10.632;2023-05-15T14:10:23;94301.22;;;10.63;84.90
56330;BME280;42236;48.058;10.632;2023-05-15T14:13:09;94297.66;;;10.27;89.00
56330;BME280;42236;48.058;10.632;2023-05-15T14:15:54;94317.84;;;10.05;89.11
56330;BME280;42236;48.058;10.632;2023-05-15T14:18:40;94318.78;;;9.97;89.65
56330;BME280;42236;48.058;10.632;2023-05-15T14:21:26;94310.25;;;9.95;91.30
56330;BME280;42236;48.058;10.632;2023-05-15T14:24:12;94304.34;;;9.89;91.98
56330;BME280;42236;48.058;10.632;2023-05-15T14:26:57;94305.28;;;9.81;91.45
56330;BME280;42236;48.058;10.632;2023-05-15T14:29:43;94306.22;;;9.73;92.21
56330;BME280;42236;48.058;10.632;2023-05-15T14:32:29;94317.56;;;9.66;93.14
56330;BME280;42236;48.058;10.632;2023-05-15T14:35:14;94318.94;;;9.60;93.48
56330;BME280;42236;48.058;10.632;2023-05-15T14:38:00;94322.53;;;9.64;93.62
56330;BME280;42236;48.058;10.632;2023-05-15T14:40:47;94313.06;;;9.70;93.10
56330;BME280;42236;48.058;10.632;2023-05-15T14:43:32;94320.22;;;9.78;92.75
56330;BME280;42236;48.058;10.632;2023-05-15T14:46:18;94325.38;;;9.83;93.01
56330;BME280;42236;48.058;10.632;2023-05-15T14:49:04;94318.09;;;10.00;95.04
56330;BME280;42236;48.058;10.632;2023-05-15T14:51:49;94319.31;;;10.31;94.24
56330;BME280;42236;48.058;10.632;2023-05-15T14:54:36;94319.34;;;10.62;93.93
56330;BME280;42236;48.058;10.632;2023-05-15T14:57:22;94314.72;;;10.95;94.04
56330;BME280;42236;48.058;10.632;2023-05-15T15:00:08;94310.31;;;11.22;94.88
56330;BME280;42236;48.058;10.632;2023-05-15T15:02:53;94311.28;;;11.49;94.34
56330;BME280;42236;48.058;10.632;2023-05-15T15:05:39;94306.47;;;11.78;93.22
56330;BME280;42236;48.058;10.632;2023-05-15T15:08:25;94307.69;;;12.00;93.09
56330;BME280;42236;48.058;10.632;2023-05-15T15:11:11;94298.34;;;12.16;91.46
56330;BME280;42236;48.058;10.632;2023-05-15T15:13:56;94288.94;;;12.30;91.79
56330;BME280;42236;48.058;10.632;2023-05-15T15:16:42;94283.81;;;12.48;91.75